Time;durP1;ratioP1;P1;durP2;ratioP2;P2;SDS_P1;SDS_P2;PMS_P1;PMS_P2;Temp;Humidity;BMP_temperature;BMP_pressure;BME280_temperature;BME280_humidity;BME280_pressure;Samples;Min_cycle;Max_cycle;Signal;HPM_P1;HPM_P2
2022/06/11 00:00:44;;;;;;;0.00;0.00;;;;;;;;;;1736688;28;20310;-63
2022/06/11 00:01:37;;;;;;;0.00;0.00;;;;;;;;;;1738805;28;20238;-64
2022/06/11 00:02:30;;;;;;;0.00;0.00;;;;;;;;;;1737436;28;20260;-63
2022/06/11 00:03:21;;;;;;;0.00;0.00;;;;;;;;;;1737885;28;20704;-63
2022/06/11 00:04:15;;;;;;;0.00;0.00;;;;;;;;;;1737595;28;20645;-63
2022/06/11 00:05:07;;;;;;;0.00;0.00;;;;;;;;;;1738810;28;20235;-63
2022/06/11 00:05:59;;;;;;;0.00;0.00;;;;;;;;;;1736715;28;20250;-63
2022/06/11 00:06:52;;;;;;;0.00;0.00;;;;;;;;;;1738722;28;20665;-64
2022/06/11 00:07:44;;;;;;;0.00;0.00;;;;;;;;;;1738189;28;20655;-63
2022/06/11 00:08:36;;;;;;;0.00;0.00;;;;;;;;;;1737937;28;20207;-64
2022/06/11 00:09:28;;;;;;;0.00;0.00;;;;;;;;;;1734068;28;20199;-63
2022/06/11 00:10:20;;;;;;;0.00;0.00;;;;;;;;;;1736383;28;20286;-64
2022/06/11 00:11:13;;;;;;;0.00;0.00;;;;;;;;;;1738382;28;20219;-63
2022/06/11 00:12:06;;;;;;;0.00;0.00;;;;;;;;;;1738291;28;20199;-63
2022/06/11 00:12:58;;;;;;;0.00;0.00;;;;;;;;;;1738105;28;20285;-63
2022/06/11 00:13:50;;;;;;;0.00;0.00;;;;;;;;;;1738131;28;20256;-63
2022/06/11 00:14:43;;;;;;;0.00;0.00;;;;;;;;;;1737740;28;20508;-64
2022/06/11 00:15:34;;;;;;;0.00;0.00;;;;;;;;;;1735772;28;20375;-64
2022/06/11 00:16:27;;;;;;;0.00;0.00;;;;;;;;;;1738964;28;20662;-64
2022/06/11 00:17:20;;;;;;;0.00;0.00;;;;;;;;;;1738047;28;20242;-63
2022/06/11 00:18:12;;;;;;;0.00;0.00;;;;;;;;;;1738859;28;20194;-63
2022/06/11 00:19:06;;;;;;;0.00;0.00;;;;;;;;;;1736374;28;20298;-64
2022/06/11 00:19:59;;;;;;;0.00;0.00;;;;;;;;;;1737652;28;20241;-63
2022/06/11 00:20:50;;;;;;;0.00;0.00;;;;;;;;;;1734910;28;20285;-64
2022/06/11 00:21:44;;;;;;;0.00;0.00;;;;;;;;;;1738448;28;20715;-63
2022/06/11 00:22:36;;;;;;;0.00;0.00;;;;;;;;;;1734686;28;20231;-64
2022/06/11 00:23:29;;;;;;;0.00;0.00;;;;;;;;;;1738265;28;20282;-64
2022/06/11 00:24:21;;;;;;;0.00;0.00;;;;;;;;;;1738467;28;20264;-63
2022/06/11 00:25:13;;;;;;;0.00;0.00;;;;;;;;;;1737936;28;20426;-64
2022/06/11 00:26:05;;;;;;;0.00;0.00;;;;;;;;;;1737407;28;20645;-63
2022/06/11 00:26:59;;;;;;;0.00;0.00;;;;;;;;;;1738091;28;20536;-63
2022/06/11 00:27:50;;;;;;;0.00;0.00;;;;;;;;;;1738129;28;20294;-64
2022/06/11 00:28:43;;;;;;;0.00;0.00;;;;;;;;;;1738658;28;20286;-63
2022/06/11 00:29:36;;;;;;;0.00;0.00;;;;;;;;;;1734085;28;20215;-63
2022/06/11 00:30:28;;;;;;;0.00;0.00;;;;;;;;;;1736499;28;20284;-63
2022/06/11 00:31:20;;;;;;;0.00;0.00;;;;;;;;;;1734541;28;20191;-63
2022/06/11 00:32:13;;;;;;;0.00;0.00;;;;;;;;;;1738093;28;20195;-63
2022/06/11 00:33:06;;;;;;;0.00;0.00;;;;;;;;;;1734714;28;20606;-63
2022/06/11 00:33:58;;;;;;;0.00;0.00;;;;;;;;;;1737840;28;20320;-63
2022/06/11 00:34:49;;;;;;;0.00;0.00;;;;;;;;;;1738677;28;20590;-64
2022/06/11 00:35:42;;;;;;;0.00;0.00;;;;;;;;;;1734173;28;20607;-64
2022/06/11 00:36:34;;;;;;;0.00;0.00;;;;;;;;;;1736761;28;20203;-64
2022/06/11 00:37:26;;;;;;;0.00;0.00;;;;;;;;;;1735417;28;20238;-64
2022/06/11 00:38:18;;;;;;;0.00;0.00;;;;;;;;;;1737641;28;20214;-63
2022/06/11 00:39:10;;;;;;;0.00;0.00;;;;;;;;;;1740839;28;20258;-64
2022/06/11 00:40:02;;;;;;;0.00;0.00;;;;;;;;;;1740885;28;20738;-63
2022/06/11 00:40:56;;;;;;;0.00;0.00;;;;;;;;;;1739580;28;20477;-64
2022/06/11 00:41:48;;;;;;;0.00;0.00;;;;;;;;;;1734826;28;20195;-63
2022/06/11 00:42:41;;;;;;;0.00;0.00;;;;;;;;;;1740014;28;20223;-64
2022/06/11 00:43:33;;;;;;;0.00;0.00;;;;;;;;;;1741740;28;20712;-64
2022/06/11 00:44:25;;;;;;;0.00;0.00;;;;;;;;;;1744307;28;20190;-64
2022/06/11 00:45:21;;;;;;;0.00;0.00;;;;;;;;;;1739710;28;20206;-64
2022/06/11 00:46:31;;;;;;;0.00;0.00;;;;;;;;;;1741330;28;20633;-64
2022/06/11 00:47:25;;;;;;;0.00;0.00;;;;;;;;;;1740852;28;20192;-63
2022/06/11 00:48:18;;;;;;;0.00;0.00;;;;;;;;;;1741790;28;20431;-64
2022/06/11 00:49:17;;;;;;;0.00;0.00;;;;;;;;;;1741989;28;20199;-63
2022/06/11 00:50:17;;;;;;;0.00;0.00;;;;;;;;;;1735408;28;20266;-64
2022/06/11 00:51:13;;;;;;;0.00;0.00;;;;;;;;;;1739555;28;20230;-63
2022/06/11 00:52:17;;;;;;;0.00;0.00;;;;;;;;;;1740786;28;20191;-63
2022/06/11 00:53:13;;;;;;;0.00;0.00;;;;;;;;;;1739012;28;20275;-64
2022/06/11 00:54:09;;;;;;;0.00;0.00;;;;;;;;;;1740095;28;20187;-64
2022/06/11 00:55:04;;;;;;;0.00;0.00;;;;;;;;;;1741670;28;20202;-63
2022/06/11 00:55:55;;;;;;;0.00;0.00;;;;;;;;;;1741021;28;20478;-64
2022/06/11 00:56:49;;;;;;;0.00;0.00;;;;;;;;;;1742083;28;20214;-62
2022/06/11 00:57:44;;;;;;;0.00;0.00;;;;;;;;;;1741222;28;20246;-64
2022/06/11 00:58:38;;;;;;;0.00;0.00;;;;;;;;;;1742217;28;20432;-65
2022/06/11 00:59:33;;;;;;;0.00;0.00;;;;;;;;;;1741587;28;20203;-63
2022/06/11 01:00:27;;;;;;;0.00;0.00;;;;;;;;;;1736823;28;20201;-64
2022/06/11 01:01:19;;;;;;;0.00;0.00;;;;;;;;;;1738485;28;20253;-63
2022/06/11 01:02:12;;;;;;;0.00;0.00;;;;;;;;;;1737961;28;20203;-64
2022/06/11 01:03:04;;;;;;;0.00;0.00;;;;;;;;;;1734635;28;20713;-64
2022/06/11 01:03:58;;;;;;;0.00;0.00;;;;;;;;;;1736411;28;20446;-64
2022/06/11 01:04:52;;;;;;;0.00;0.00;;;;;;;;;;1735989;28;20218;-64
2022/06/11 01:05:45;;;;;;;0.00;0.00;;;;;;;;;;1736397;28;20238;-64
2022/06/11 01:06:42;;;;;;;0.00;0.00;;;;;;;;;;1738389;28;20210;-63
2022/06/11 01:07:58;;;;;;;0.00;0.00;;;;;;;;;;1737895;28;20207;-64
2022/06/11 01:08:55;;;;;;;0.00;0.00;;;;;;;;;;1732485;28;20245;-64
2022/06/11 01:09:52;;;;;;;0.00;0.00;;;;;;;;;;1735240;28;20218;-64
2022/06/11 01:10:57;;;;;;;0.00;0.00;;;;;;;;;;1735945;28;20277;-64
2022/06/11 01:11:57;;;;;;;0.00;0.00;;;;;;;;;;1733632;28;20539;-63
2022/06/11 01:12:57;;;;;;;0.00;0.00;;;;;;;;;;1738055;28;20226;-64
2022/06/11 01:13:54;;;;;;;0.00;0.00;;;;;;;;;;1738286;28;20223;-63
2022/06/11 01:14:47;;;;;;;0.00;0.00;;;;;;;;;;1735600;28;20241;-64
2022/06/11 01:15:44;;;;;;;0.00;0.00;;;;;;;;;;1735408;28;20231;-63
2022/06/11 01:16:40;;;;;;;0.00;0.00;;;;;;;;;;1738113;28;20222;-64
2022/06/11 01:17:36;;;;;;;0.00;0.00;;;;;;;;;;1737677;28;20195;-64
2022/06/11 01:18:32;;;;;;;0.00;0.00;;;;;;;;;;1738433;28;20631;-63
2022/06/11 01:19:40;;;;;;;0.00;0.00;;;;;;;;;;1737513;28;20245;-64
2022/06/11 01:20:39;;;;;;;0.00;0.00;;;;;;;;;;1736378;28;20266;-64
2022/06/11 01:21:37;;;;;;;0.00;0.00;;;;;;;;;;1738115;28;20241;-63
2022/06/11 01:22:36;;;;;;;0.00;0.00;;;;;;;;;;1734798;28;20237;-64
2022/06/11 01:23:58;;;;;;;0.00;0.00;;;;;;;;;;1738519;28;20194;-64
2022/06/11 01:24:55;;;;;;;0.00;0.00;;;;;;;;;;1739788;28;20877;-63
2022/06/11 01:25:54;;;;;;;0.00;0.00;;;;;;;;;;1737611;28;20265;-64
2022/06/11 01:27:06;;;;;;;0.00;0.00;;;;;;;;;;1739897;28;20203;-64
2022/06/11 01:28:10;;;;;;;0.00;0.00;;;;;;;;;;1738679;28;20280;-64
2022/06/11 01:29:06;;;;;;;0.00;0.00;;;;;;;;;;1739496;28;20254;-63
2022/06/11 01:30:01;;;;;;;0.00;0.00;;;;;;;;;;1739337;28;20434;-63
2022/06/11 01:30:55;;;;;;;0.00;0.00;;;;;;;;;;1737762;28;20262;-64
2022/06/11 01:31:50;;;;;;;0.00;0.00;;;;;;;;;;1739648;28;20202;-64
2022/06/11 01:32:45;;;;;;;0.00;0.00;;;;;;;;;;1739314;28;20361;-64
2022/06/11 01:33:40;;;;;;;0.00;0.00;;;;;;;;;;1739286;28;20190;-63
2022/06/11 01:34:35;;;;;;;0.00;0.00;;;;;;;;;;1738868;28;20709;-64
2022/06/11 01:35:42;;;;;;;0.00;0.00;;;;;;;;;;1737527;28;20286;-64
2022/06/11 01:36:36;;;;;;;0.00;0.00;;;;;;;;;;1738891;28;20731;-64
2022/06/11 01:37:29;;;;;;;0.00;0.00;;;;;;;;;;1737766;28;20676;-63
2022/06/11 01:38:24;;;;;;;0.00;0.00;;;;;;;;;;1739741;28;20671;-64
2022/06/11 01:39:18;;;;;;;0.00;0.00;;;;;;;;;;1739645;28;20202;-63
2022/06/11 01:40:14;;;;;;;0.00;0.00;;;;;;;;;;1739060;28;20201;-64
2022/06/11 01:41:22;;;;;;;0.00;0.00;;;;;;;;;;1738209;28;20661;-63
2022/06/11 01:42:17;;;;;;;0.00;0.00;;;;;;;;;;1738015;28;20210;-64
2022/06/11 01:43:15;;;;;;;0.00;0.00;;;;;;;;;;1739559;28;20741;-64
2022/06/11 01:44:10;;;;;;;0.00;0.00;;;;;;;;;;1740673;28;20214;-63
2022/06/11 01:45:05;;;;;;;0.00;0.00;;;;;;;;;;1740748;28;20800;-64
2022/06/11 01:45:58;;;;;;;0.00;0.00;;;;;;;;;;1737167;28;20245;-64
2022/06/11 01:46:51;;;;;;;0.00;0.00;;;;;;;;;;1739027;28;20263;-63
2022/06/11 01:47:43;;;;;;;0.00;0.00;;;;;;;;;;1739030;28;20680;-64
2022/06/11 01:48:35;;;;;;;0.00;0.00;;;;;;;;;;1739723;28;20360;-63
2022/06/11 01:49:42;;;;;;;0.00;0.00;;;;;;;;;;1739349;28;20548;-64
2022/06/11 01:50:36;;;;;;;0.00;0.00;;;;;;;;;;1737199;28;20525;-64
2022/06/11 01:51:31;;;;;;;0.00;0.00;;;;;;;;;;1739397;28;20371;-63
2022/06/11 01:52:31;;;;;;;0.00;0.00;;;;;;;;;;1738358;28;20268;-63
2022/06/11 01:53:39;;;;;;;0.00;0.00;;;;;;;;;;1739131;28;20665;-64
2022/06/11 01:54:34;;;;;;;0.00;0.00;;;;;;;;;;1739342;28;20222;-64
2022/06/11 01:55:32;;;;;;;0.00;0.00;;;;;;;;;;1737748;28;20183;-64
2022/06/11 01:56:42;;;;;;;0.00;0.00;;;;;;;;;;1739522;28;20196;-64
2022/06/11 01:57:43;;;;;;;0.00;0.00;;;;;;;;;;1737673;28;20195;-64
2022/06/11 01:58:51;;;;;;;0.00;0.00;;;;;;;;;;1732042;28;20246;-63
2022/06/11 01:59:52;;;;;;;0.00;0.00;;;;;;;;;;1736181;28;20196;-64
2022/06/11 02:00:49;;;;;;;0.00;0.00;;;;;;;;;;1736176;28;20789;-64
2022/06/11 02:01:48;;;;;;;0.00;0.00;;;;;;;;;;1739462;28;20603;-64
2022/06/11 02:02:54;;;;;;;0.00;0.00;;;;;;;;;;1737880;28;20239;-64
2022/06/11 02:03:52;;;;;;;0.00;0.00;;;;;;;;;;1725208;28;20200;-64
2022/06/11 02:04:48;;;;;;;0.00;0.00;;;;;;;;;;1725252;28;20675;-64
2022/06/11 02:05:46;;;;;;;0.00;0.00;;;;;;;;;;1722689;28;20743;-64
2022/06/11 02:06:45;;;;;;;0.00;0.00;;;;;;;;;;1726090;28;20209;-64
2022/06/11 02:07:42;;;;;;;0.00;0.00;;;;;;;;;;1724121;28;20199;-63
2022/06/11 02:08:39;;;;;;;0.00;0.00;;;;;;;;;;1726198;28;20702;-63
2022/06/11 02:09:36;;;;;;;0.00;0.00;;;;;;;;;;1724796;28;20258;-64
2022/06/11 02:10:30;;;;;;;0.00;0.00;;;;;;;;;;1723031;28;20212;-64
2022/06/11 02:11:27;;;;;;;0.00;0.00;;;;;;;;;;1725279;28;20806;-64
2022/06/11 02:12:22;;;;;;;0.00;0.00;;;;;;;;;;1724552;28;20197;-64
2022/06/11 02:13:19;;;;;;;0.00;0.00;;;;;;;;;;1725331;28;20242;-63
2022/06/11 02:14:14;;;;;;;0.00;0.00;;;;;;;;;;1725507;28;20196;-64
2022/06/11 02:15:08;;;;;;;0.00;0.00;;;;;;;;;;1726040;28;20228;-64
2022/06/11 02:16:06;;;;;;;0.00;0.00;;;;;;;;;;1723463;28;20383;-64
2022/06/11 02:17:00;;;;;;;0.00;0.00;;;;;;;;;;1725027;28;20269;-64
2022/06/11 02:17:54;;;;;;;0.00;0.00;;;;;;;;;;1724018;28;20204;-64
2022/06/11 02:18:47;;;;;;;0.00;0.00;;;;;;;;;;1725590;28;20270;-63
2022/06/11 02:19:41;;;;;;;0.00;0.00;;;;;;;;;;1722031;28;20572;-63
2022/06/11 02:20:36;;;;;;;0.00;0.00;;;;;;;;;;1723339;28;20263;-63
2022/06/11 02:21:28;;;;;;;0.00;0.00;;;;;;;;;;1725787;28;20564;-64
2022/06/11 02:22:23;;;;;;;0.00;0.00;;;;;;;;;;1724348;28;20235;-63
2022/06/11 02:23:16;;;;;;;0.00;0.00;;;;;;;;;;1724648;28;20227;-63
2022/06/11 02:24:12;;;;;;;0.00;0.00;;;;;;;;;;1722801;28;20247;-64
2022/06/11 02:25:06;;;;;;;0.00;0.00;;;;;;;;;;1725223;28;20247;-63
2022/06/11 02:26:00;;;;;;;0.00;0.00;;;;;;;;;;1722340;28;20236;-64
2022/06/11 02:26:53;;;;;;;0.00;0.00;;;;;;;;;;1725834;28;20204;-63
2022/06/11 02:27:47;;;;;;;0.00;0.00;;;;;;;;;;1721223;28;20238;-63
2022/06/11 02:28:41;;;;;;;0.00;0.00;;;;;;;;;;1725256;28;20678;-64
2022/06/11 02:29:34;;;;;;;0.00;0.00;;;;;;;;;;1724050;28;20296;-63
2022/06/11 02:30:27;;;;;;;0.00;0.00;;;;;;;;;;1723203;28;20200;-63
2022/06/11 02:31:24;;;;;;;0.00;0.00;;;;;;;;;;1722100;28;20193;-63
2022/06/11 02:32:18;;;;;;;0.00;0.00;;;;;;;;;;1723560;28;20591;-63
2022/06/11 02:33:11;;;;;;;0.00;0.00;;;;;;;;;;1725642;28;20204;-63
2022/06/11 02:34:05;;;;;;;0.00;0.00;;;;;;;;;;1723460;28;20215;-63
2022/06/11 02:34:59;;;;;;;0.00;0.00;;;;;;;;;;1725104;28;20200;-63
2022/06/11 02:35:56;;;;;;;0.00;0.00;;;;;;;;;;1721619;28;20249;-63
2022/06/11 02:36:55;;;;;;;0.00;0.00;;;;;;;;;;1725319;28;20216;-64
2022/06/11 02:37:48;;;;;;;0.00;0.00;;;;;;;;;;1721016;28;20193;-64
2022/06/11 02:38:41;;;;;;;0.00;0.00;;;;;;;;;;1725272;28;20682;-63
2022/06/11 02:39:33;;;;;;;0.00;0.00;;;;;;;;;;1724041;28;20370;-63
2022/06/11 02:40:27;;;;;;;0.00;0.00;;;;;;;;;;1722869;28;20201;-63
2022/06/11 02:41:20;;;;;;;0.00;0.00;;;;;;;;;;1724797;28;20208;-64
2022/06/11 02:42:14;;;;;;;0.00;0.00;;;;;;;;;;1724082;28;20696;-63
2022/06/11 02:43:07;;;;;;;0.00;0.00;;;;;;;;;;1725108;28;20208;-64
2022/06/11 02:43:59;;;;;;;0.00;0.00;;;;;;;;;;1724563;28;20209;-63
2022/06/11 02:44:51;;;;;;;0.00;0.00;;;;;;;;;;1720720;28;20286;-63
2022/06/11 02:45:43;;;;;;;0.00;0.00;;;;;;;;;;1718930;28;20317;-64
2022/06/11 02:46:43;;;;;;;0.00;0.00;;;;;;;;;;1725413;28;20211;-63
2022/06/11 02:47:35;;;;;;;0.00;0.00;;;;;;;;;;1722800;28;20291;-63
2022/06/11 02:48:26;;;;;;;0.00;0.00;;;;;;;;;;1725525;28;20203;-63
2022/06/11 02:49:20;;;;;;;0.00;0.00;;;;;;;;;;1723541;28;20228;-63
2022/06/11 02:50:13;;;;;;;0.00;0.00;;;;;;;;;;1718752;28;20208;-64
2022/06/11 02:51:05;;;;;;;0.00;0.00;;;;;;;;;;1722321;28;20641;-63
2022/06/11 02:51:58;;;;;;;0.00;0.00;;;;;;;;;;1727220;28;20617;-63
2022/06/11 02:52:51;;;;;;;0.00;0.00;;;;;;;;;;1724430;28;20654;-64
2022/06/11 02:53:42;;;;;;;0.00;0.00;;;;;;;;;;1724508;28;20204;-64
2022/06/11 02:54:34;;;;;;;0.00;0.00;;;;;;;;;;1721483;28;20260;-64
2022/06/11 02:55:27;;;;;;;0.00;0.00;;;;;;;;;;1722607;28;20263;-64
2022/06/11 02:56:19;;;;;;;0.00;0.00;;;;;;;;;;1725515;28;20631;-63
2022/06/11 02:57:13;;;;;;;0.00;0.00;;;;;;;;;;1724333;28;20228;-63
2022/06/11 02:58:06;;;;;;;0.00;0.00;;;;;;;;;;1722842;28;20594;-63
2022/06/11 02:58:58;;;;;;;0.00;0.00;;;;;;;;;;1723527;28;20212;-64
2022/06/11 02:59:50;;;;;;;0.00;0.00;;;;;;;;;;1724574;28;20206;-63
2022/06/11 03:00:43;;;;;;;0.00;0.00;;;;;;;;;;1722362;28;20723;-64
2022/06/11 03:01:37;;;;;;;0.00;0.00;;;;;;;;;;1725121;28;20211;-63
2022/06/11 03:02:28;;;;;;;0.00;0.00;;;;;;;;;;1722463;28;20243;-64
2022/06/11 03:03:22;;;;;;;0.00;0.00;;;;;;;;;;1733981;28;20230;-63
2022/06/11 03:04:13;;;;;;;0.00;0.00;;;;;;;;;;1738669;28;20273;-63
2022/06/11 03:05:06;;;;;;;0.00;0.00;;;;;;;;;;1739018;28;20577;-63
2022/06/11 03:05:58;;;;;;;0.00;0.00;;;;;;;;;;1735629;28;20265;-63
2022/06/11 03:06:51;;;;;;;0.00;0.00;;;;;;;;;;1739197;28;20673;-64
2022/06/11 03:07:43;;;;;;;0.00;0.00;;;;;;;;;;1734136;28;20226;-63
2022/06/11 03:08:35;;;;;;;0.00;0.00;;;;;;;;;;1739259;28;20545;-64
2022/06/11 03:09:28;;;;;;;0.00;0.00;;;;;;;;;;1738187;28;20241;-63
2022/06/11 03:10:22;;;;;;;0.00;0.00;;;;;;;;;;1737253;28;20207;-63
2022/06/11 03:11:13;;;;;;;0.00;0.00;;;;;;;;;;1738521;28;20264;-63
2022/06/11 03:12:06;;;;;;;0.00;0.00;;;;;;;;;;1737294;28;20198;-63
2022/06/11 03:12:58;;;;;;;0.00;0.00;;;;;;;;;;1738621;28;20222;-63
2022/06/11 03:13:50;;;;;;;0.00;0.00;;;;;;;;;;1738437;28;20759;-63
2022/06/11 03:14:42;;;;;;;0.00;0.00;;;;;;;;;;1735355;28;20620;-63
2022/06/11 03:15:35;;;;;;;0.00;0.00;;;;;;;;;;1736212;28;20636;-63
2022/06/11 03:16:26;;;;;;;0.00;0.00;;;;;;;;;;1735924;28;20559;-63
2022/06/11 03:17:20;;;;;;;0.00;0.00;;;;;;;;;;1737081;28;20230;-63
2022/06/11 03:18:12;;;;;;;0.00;0.00;;;;;;;;;;1735778;28;20257;-63
2022/06/11 03:19:04;;;;;;;0.00;0.00;;;;;;;;;;1738664;28;20288;-63
2022/06/11 03:19:55;;;;;;;0.00;0.00;;;;;;;;;;1738859;28;20218;-63
2022/06/11 03:20:48;;;;;;;0.00;0.00;;;;;;;;;;1734827;28;20238;-63
2022/06/11 03:21:39;;;;;;;0.00;0.00;;;;;;;;;;1737883;28;20535;-63
2022/06/11 03:22:31;;;;;;;0.00;0.00;;;;;;;;;;1737997;28;20206;-63
2022/06/11 03:23:22;;;;;;;0.00;0.00;;;;;;;;;;1738876;28;20237;-64
2022/06/11 03:24:15;;;;;;;0.00;0.00;;;;;;;;;;1734388;28;20204;-63
2022/06/11 03:25:08;;;;;;;0.00;0.00;;;;;;;;;;1738634;28;20202;-64
2022/06/11 03:26:01;;;;;;;0.00;0.00;;;;;;;;;;1736921;28;20241;-64
2022/06/11 03:26:52;;;;;;;0.00;0.00;;;;;;;;;;1738931;28;20594;-64
2022/06/11 03:27:45;;;;;;;0.00;0.00;;;;;;;;;;1738343;28;20716;-63
2022/06/11 03:28:36;;;;;;;0.00;0.00;;;;;;;;;;1739109;28;20298;-63
2022/06/11 03:29:28;;;;;;;0.00;0.00;;;;;;;;;;1738424;28;20572;-64
2022/06/11 03:30:20;;;;;;;0.00;0.00;;;;;;;;;;1736330;28;20202;-64
2022/06/11 03:31:12;;;;;;;0.00;0.00;;;;;;;;;;1738607;28;20248;-64
2022/06/11 03:32:04;;;;;;;0.00;0.00;;;;;;;;;;1738704;28;20260;-63
2022/06/11 03:32:58;;;;;;;0.00;0.00;;;;;;;;;;1738036;28;20223;-63
2022/06/11 03:33:49;;;;;;;0.00;0.00;;;;;;;;;;1738434;28;20568;-63
2022/06/11 03:34:42;;;;;;;0.00;0.00;;;;;;;;;;1738689;28;20598;-63
2022/06/11 03:35:34;;;;;;;0.00;0.00;;;;;;;;;;1736528;28;20260;-63
2022/06/11 03:36:26;;;;;;;0.00;0.00;;;;;;;;;;1738268;28;20653;-63
2022/06/11 03:37:18;;;;;;;0.00;0.00;;;;;;;;;;1737702;28;20223;-63
2022/06/11 03:38:11;;;;;;;0.00;0.00;;;;;;;;;;1738539;28;20641;-63
2022/06/11 03:39:03;;;;;;;0.00;0.00;;;;;;;;;;1738133;28;20301;-64
2022/06/11 03:39:55;;;;;;;0.00;0.00;;;;;;;;;;1739036;28;20202;-64
2022/06/11 03:40:46;;;;;;;0.00;0.00;;;;;;;;;;1736425;28;20443;-63
2022/06/11 03:41:39;;;;;;;0.00;0.00;;;;;;;;;;1738853;28;20273;-63
2022/06/11 03:42:30;;;;;;;0.00;0.00;;;;;;;;;;1735211;28;20696;-63
2022/06/11 03:43:23;;;;;;;0.00;0.00;;;;;;;;;;1737005;28;20699;-63
2022/06/11 03:44:15;;;;;;;0.00;0.00;;;;;;;;;;1738122;28;20203;-63
2022/06/11 03:45:08;;;;;;;0.00;0.00;;;;;;;;;;1738639;28;20551;-63
2022/06/11 03:45:59;;;;;;;0.00;0.00;;;;;;;;;;1736568;28;20534;-63
2022/06/11 03:46:52;;;;;;;0.00;0.00;;;;;;;;;;1738799;28;20207;-64
2022/06/11 03:47:43;;;;;;;0.00;0.00;;;;;;;;;;1738050;28;20302;-63
2022/06/11 03:48:38;;;;;;;0.00;0.00;;;;;;;;;;1737963;28;20309;-64
2022/06/11 03:49:29;;;;;;;0.00;0.00;;;;;;;;;;1738279;28;20203;-64
2022/06/11 03:50:22;;;;;;;0.00;0.00;;;;;;;;;;1737102;28;20693;-64
2022/06/11 03:51:14;;;;;;;0.00;0.00;;;;;;;;;;1738138;28;20199;-63
2022/06/11 03:52:06;;;;;;;0.00;0.00;;;;;;;;;;1738312;28;20195;-63
2022/06/11 03:52:58;;;;;;;0.00;0.00;;;;;;;;;;1734630;28;20301;-63
2022/06/11 03:53:51;;;;;;;0.00;0.00;;;;;;;;;;1737893;28;20691;-64
2022/06/11 03:54:42;;;;;;;0.00;0.00;;;;;;;;;;1734529;28;20344;-63
2022/06/11 03:55:34;;;;;;;0.00;0.00;;;;;;;;;;1735800;28;20286;-63
2022/06/11 03:56:26;;;;;;;0.00;0.00;;;;;;;;;;1738945;28;20192;-65
2022/06/11 03:57:18;;;;;;;0.00;0.00;;;;;;;;;;1738015;28;20230;-63
2022/06/11 03:58:10;;;;;;;0.00;0.00;;;;;;;;;;1738620;28;20840;-63
2022/06/11 03:59:02;;;;;;;0.00;0.00;;;;;;;;;;1738345;28;20282;-63
2022/06/11 03:59:53;;;;;;;0.00;0.00;;;;;;;;;;1738542;28;20249;-63
2022/06/11 04:01:56;;;;;;;0.00;0.00;;;;;;;;;;1738745;28;20202;-64
2022/06/11 04:02:47;;;;;;;0.00;0.00;;;;;;;;;;1734398;28;20224;-63
2022/06/11 04:03:41;;;;;;;0.00;0.00;;;;;;;;;;1738467;28;20230;-63
2022/06/11 04:04:34;;;;;;;0.00;0.00;;;;;;;;;;1738391;28;20242;-63
2022/06/11 04:05:25;;;;;;;0.00;0.00;;;;;;;;;;1736907;28;20611;-64
2022/06/11 04:06:18;;;;;;;0.00;0.00;;;;;;;;;;1738374;28;20194;-64
2022/06/11 04:07:10;;;;;;;0.00;0.00;;;;;;;;;;1737484;28;20518;-63
2022/06/11 04:08:03;;;;;;;0.00;0.00;;;;;;;;;;1734923;28;20294;-64
2022/06/11 04:08:54;;;;;;;0.00;0.00;;;;;;;;;;1737996;28;20207;-64
2022/06/11 04:09:46;;;;;;;0.00;0.00;;;;;;;;;;1735430;28;20294;-63
2022/06/11 04:10:38;;;;;;;0.00;0.00;;;;;;;;;;1735989;28;20239;-63
2022/06/11 04:11:30;;;;;;;0.00;0.00;;;;;;;;;;1738863;28;20203;-64
2022/06/11 04:12:21;;;;;;;0.00;0.00;;;;;;;;;;1737631;28;20271;-64
2022/06/11 04:13:14;;;;;;;0.00;0.00;;;;;;;;;;1737680;28;20190;-64
2022/06/11 04:14:05;;;;;;;0.00;0.00;;;;;;;;;;1737751;28;20723;-63
2022/06/11 04:14:58;;;;;;;0.00;0.00;;;;;;;;;;1738876;28;20264;-63
2022/06/11 04:15:49;;;;;;;0.00;0.00;;;;;;;;;;1736496;28;20223;-64
2022/06/11 04:16:44;;;;;;;0.00;0.00;;;;;;;;;;1738580;28;20269;-63
2022/06/11 04:17:35;;;;;;;0.00;0.00;;;;;;;;;;1734964;28;20521;-63
2022/06/11 04:18:31;;;;;;;0.00;0.00;;;;;;;;;;1738242;28;20203;-63
2022/06/11 04:19:26;;;;;;;0.00;0.00;;;;;;;;;;1737656;28;20905;-63
2022/06/11 04:20:18;;;;;;;0.00;0.00;;;;;;;;;;1728234;28;20207;-64
2022/06/11 04:21:14;;;;;;;0.00;0.00;;;;;;;;;;1737640;28;20230;-63
2022/06/11 04:22:06;;;;;;;0.00;0.00;;;;;;;;;;1738181;28;20215;-64
2022/06/11 04:22:58;;;;;;;0.00;0.00;;;;;;;;;;1738029;28;20262;-64
2022/06/11 04:23:51;;;;;;;0.00;0.00;;;;;;;;;;1738409;28;20294;-63
2022/06/11 04:24:43;;;;;;;0.00;0.00;;;;;;;;;;1734317;28;20203;-64
2022/06/11 04:25:35;;;;;;;0.00;0.00;;;;;;;;;;1735204;28;20289;-64
2022/06/11 04:26:29;;;;;;;0.00;0.00;;;;;;;;;;1735411;28;20529;-63
2022/06/11 04:27:21;;;;;;;0.00;0.00;;;;;;;;;;1736649;28;20293;-63
2022/06/11 04:28:13;;;;;;;0.00;0.00;;;;;;;;;;1736443;28;20202;-63
2022/06/11 04:29:05;;;;;;;0.00;0.00;;;;;;;;;;1738070;28;20355;-63
2022/06/11 04:29:58;;;;;;;0.00;0.00;;;;;;;;;;1738711;28;20345;-64
2022/06/11 04:30:49;;;;;;;0.00;0.00;;;;;;;;;;1735514;28;20234;-65
2022/06/11 04:31:42;;;;;;;0.00;0.00;;;;;;;;;;1737688;28;20199;-64
2022/06/11 04:32:33;;;;;;;0.00;0.00;;;;;;;;;;1738038;28;20246;-64
2022/06/11 04:33:26;;;;;;;0.00;0.00;;;;;;;;;;1738004;28;20214;-64
2022/06/11 04:34:17;;;;;;;0.00;0.00;;;;;;;;;;1738315;28;20285;-64
2022/06/11 04:35:11;;;;;;;0.00;0.00;;;;;;;;;;1738376;28;20693;-64
2022/06/11 04:36:04;;;;;;;0.00;0.00;;;;;;;;;;1732905;28;20689;-63
2022/06/11 04:36:57;;;;;;;0.00;0.00;;;;;;;;;;1737870;28;20230;-63
2022/06/11 04:37:48;;;;;;;0.00;0.00;;;;;;;;;;1737151;28;20632;-64
2022/06/11 04:38:40;;;;;;;0.00;0.00;;;;;;;;;;1738639;28;20605;-64
2022/06/11 04:39:32;;;;;;;0.00;0.00;;;;;;;;;;1734371;28;20304;-64
2022/06/11 04:40:24;;;;;;;0.00;0.00;;;;;;;;;;1736619;28;20635;-64
2022/06/11 04:41:15;;;;;;;0.00;0.00;;;;;;;;;;1737468;28;20318;-64
2022/06/11 04:42:09;;;;;;;0.00;0.00;;;;;;;;;;1738042;28;20199;-64
2022/06/11 04:43:01;;;;;;;0.00;0.00;;;;;;;;;;1734118;28;20318;-64
2022/06/11 04:43:53;;;;;;;0.00;0.00;;;;;;;;;;1737075;28;20577;-64
2022/06/11 04:44:45;;;;;;;0.00;0.00;;;;;;;;;;1741512;28;20286;-64
2022/06/11 04:45:38;;;;;;;0.00;0.00;;;;;;;;;;1736219;28;20730;-64
2022/06/11 04:46:29;;;;;;;0.00;0.00;;;;;;;;;;1738717;28;20241;-64
2022/06/11 04:47:24;;;;;;;0.00;0.00;;;;;;;;;;1736441;28;20206;-64
2022/06/11 04:48:15;;;;;;;0.00;0.00;;;;;;;;;;1736650;28;20252;-64
2022/06/11 04:49:08;;;;;;;0.00;0.00;;;;;;;;;;1737637;28;20393;-64
2022/06/11 04:50:00;;;;;;;0.00;0.00;;;;;;;;;;1737148;28;20309;-64
2022/06/11 04:50:54;;;;;;;0.00;0.00;;;;;;;;;;1735790;28;20230;-64
2022/06/11 04:51:46;;;;;;;0.00;0.00;;;;;;;;;;1738275;28;20278;-64
2022/06/11 04:52:39;;;;;;;0.00;0.00;;;;;;;;;;1737238;28;20587;-64
2022/06/11 04:53:30;;;;;;;0.00;0.00;;;;;;;;;;1736097;28;20259;-64
2022/06/11 04:54:23;;;;;;;0.00;0.00;;;;;;;;;;1734225;28;20613;-63
2022/06/11 04:55:14;;;;;;;0.00;0.00;;;;;;;;;;1737457;28;20558;-64
2022/06/11 04:56:07;;;;;;;0.00;0.00;;;;;;;;;;1736609;28;20223;-63
2022/06/11 04:56:58;;;;;;;0.00;0.00;;;;;;;;;;1738526;28;20611;-63
2022/06/11 04:57:51;;;;;;;0.00;0.00;;;;;;;;;;1733078;28;20710;-64
2022/06/11 04:58:42;;;;;;;0.00;0.00;;;;;;;;;;1738086;28;20717;-64
2022/06/11 04:59:34;;;;;;;0.00;0.00;;;;;;;;;;1738298;28;20309;-64
2022/06/11 05:00:27;;;;;;;0.00;0.00;;;;;;;;;;1736235;28;20554;-64
2022/06/11 05:01:19;;;;;;;0.00;0.00;;;;;;;;;;1737926;28;20572;-64
2022/06/11 05:02:11;;;;;;;0.00;0.00;;;;;;;;;;1736715;28;20853;-63
2022/06/11 05:03:03;;;;;;;0.00;0.00;;;;;;;;;;1734129;28;20223;-63
2022/06/11 05:03:55;;;;;;;0.00;0.00;;;;;;;;;;1737440;28;20278;-64
2022/06/11 05:04:47;;;;;;;0.00;0.00;;;;;;;;;;1735003;28;20317;-64
2022/06/11 05:05:38;;;;;;;0.00;0.00;;;;;;;;;;1735509;28;20264;-64
2022/06/11 05:06:35;;;;;;;0.00;0.00;;;;;;;;;;1735732;28;20286;-63
2022/06/11 05:07:26;;;;;;;0.00;0.00;;;;;;;;;;1737571;28;20366;-63
2022/06/11 05:08:19;;;;;;;0.00;0.00;;;;;;;;;;1737450;28;20210;-63
2022/06/11 05:09:12;;;;;;;0.00;0.00;;;;;;;;;;1737631;28;20255;-63
2022/06/11 05:10:04;;;;;;;0.00;0.00;;;;;;;;;;1738379;28;20533;-63
2022/06/11 05:10:55;;;;;;;0.00;0.00;;;;;;;;;;1735922;28;20254;-63
2022/06/11 05:11:49;;;;;;;0.00;0.00;;;;;;;;;;1738382;28;20199;-63
2022/06/11 05:12:40;;;;;;;0.00;0.00;;;;;;;;;;1734080;28;20231;-63
2022/06/11 05:13:33;;;;;;;0.00;0.00;;;;;;;;;;1737854;28;20944;-63
2022/06/11 05:14:25;;;;;;;0.00;0.00;;;;;;;;;;1735883;28;20635;-63
2022/06/11 05:15:17;;;;;;;0.00;0.00;;;;;;;;;;1736576;28;20264;-63
2022/06/11 05:16:09;;;;;;;0.00;0.00;;;;;;;;;;1734181;28;20638;-63
2022/06/11 05:17:01;;;;;;;0.00;0.00;;;;;;;;;;1738073;28;20209;-64
2022/06/11 05:17:52;;;;;;;0.00;0.00;;;;;;;;;;1734563;28;20297;-64
2022/06/11 05:18:44;;;;;;;0.00;0.00;;;;;;;;;;1738224;28;20207;-63
2022/06/11 05:19:36;;;;;;;0.00;0.00;;;;;;;;;;1737251;28;20256;-64
2022/06/11 05:20:28;;;;;;;0.00;0.00;;;;;;;;;;1735600;28;20205;-64
2022/06/11 05:21:20;;;;;;;0.00;0.00;;;;;;;;;;1738090;28;20686;-64
2022/06/11 05:22:14;;;;;;;0.00;0.00;;;;;;;;;;1737901;28;20199;-63
2022/06/11 05:23:05;;;;;;;0.00;0.00;;;;;;;;;;1734352;28;20634;-63
2022/06/11 05:23:57;;;;;;;0.00;0.00;;;;;;;;;;1732734;28;20670;-63
2022/06/11 05:24:49;;;;;;;0.00;0.00;;;;;;;;;;1735344;28;20640;-63